Bentonsport, Iowa
Current Conditions -  °F | °C
As of 8:35 PM on Saturday 22 Nov 2014 (Local Time) from KFFL Reporting Station
Broken Clouds Broken Clouds  
Wind Chill: 54°   Ceiling: 4700
Heat Index: 54°   Visibility: NA
Dew Point: 48°   Wind: 12mph
Humidity: 82%   Direction: 180°S
Pressure: 29.75"   Gusts: NA
Location:  40.7687°N, 92.0788°W
Report Text: KFFL 230235Z AUTO 18010KT SCT041 BKN047 BKN060 12/09 A2975 RMK AO2
Loading
Personal Weather Stations






























Interactive Weather Map New forecast layout! Learn more

10-Day Weather Forecast

Advertisements
Track Severe Weather on mobile